Time;durP1;ratioP1;P1;durP2;ratioP2;P2;SDS_P1;SDS_P2;PMS_P1;PMS_P2;Temp;Humidity;BMP_temperature;BMP_pressure;BME280_temperature;BME280_humidity;BME280_pressure;Samples;Min_cycle;Max_cycle;Signal;HPM_P1;HPM_P2
2021/03/15 00:02:08;;;;;;;24.15;4.18;;;4.30;99.90;;;;;;5090445;28;20736;-51
2021/03/15 00:04:34;;;;;;;26.73;3.53;;;4.30;99.90;;;;;;5089954;28;20865;-51
2021/03/15 00:07:01;;;;;;;25.13;3.27;;;4.20;99.90;;;;;;5074744;28;20388;-52
2021/03/15 00:09:27;;;;;;;19.67;2.40;;;4.20;99.90;;;;;;5089698;28;20438;-49
2021/03/15 00:11:53;;;;;;;22.13;2.60;;;4.10;99.90;;;;;;5089588;28;20408;-52
2021/03/15 00:14:22;;;;;;;16.00;2.20;;;4.10;99.90;;;;;;5088881;28;20376;-52
2021/03/15 00:16:49;;;;;;;20.80;2.60;;;4.20;99.90;;;;;;5088900;28;20399;-52
2021/03/15 00:19:15;;;;;;;21.48;2.80;;;4.10;99.90;;;;;;5072878;28;20764;-52
2021/03/15 00:21:41;;;;;;;17.15;2.50;;;4.10;99.90;;;;;;5070024;28;20376;-52
2021/03/15 00:24:08;;;;;;;19.10;2.30;;;4.10;99.90;;;;;;5090294;28;20391;-53
2021/03/15 00:26:34;;;;;;;24.70;2.90;;;4.10;99.90;;;;;;5087534;28;20396;-53
2021/03/15 00:29:00;;;;;;;20.83;2.85;;;4.10;99.90;;;;;;5089761;28;20396;-53
2021/03/15 00:31:26;;;;;;;25.10;3.20;;;4.10;99.90;;;;;;5089277;28;20404;-52
2021/03/15 00:33:53;;;;;;;21.33;2.58;;;4.10;99.90;;;;;;5090383;28;20382;-52
2021/03/15 00:36:19;;;;;;;24.75;3.22;;;4.10;99.90;;;;;;5089825;28;20737;-53
2021/03/15 00:38:45;;;;;;;20.67;2.55;;;4.10;99.90;;;;;;5071301;28;20384;-53
2021/03/15 00:41:11;;;;;;;20.92;2.65;;;4.10;99.90;;;;;;5090259;28;20396;-51
2021/03/15 00:43:38;;;;;;;33.70;3.90;;;4.10;99.90;;;;;;5089799;28;20388;-51
2021/03/15 00:46:04;;;;;;;26.42;4.00;;;4.10;99.90;;;;;;5089070;28;20411;-51
2021/03/15 00:48:30;;;;;;;30.85;4.82;;;4.20;99.90;;;;;;5088705;28;20396;-51
2021/03/15 00:50:56;;;;;;;39.05;5.30;;;4.20;99.90;;;;;;5089512;28;20407;-52
2021/03/15 00:53:22;;;;;;;38.90;5.43;;;4.20;99.90;;;;;;5073271;28;20392;-53
2021/03/15 00:55:48;;;;;;;46.20;6.82;;;4.30;99.90;;;;;;5089323;28;20397;-52
2021/03/15 00:58:14;;;;;;;51.43;6.50;;;4.30;99.90;;;;;;5090179;28;20388;-52
2021/03/15 01:00:41;;;;;;;54.28;7.05;;;4.30;99.90;;;;;;5089369;28;20399;-52
2021/03/15 01:03:07;;;;;;;56.75;7.28;;;4.40;99.90;;;;;;5089708;28;20388;-53
2021/03/15 01:05:41;;;;;;;62.78;7.53;;;4.40;99.90;;;;;;5089414;28;20733;-53
2021/03/15 01:08:08;;;;;;;70.13;8.23;;;4.40;99.90;;;;;;5087128;28;20393;-51
2021/03/15 01:10:35;;;;;;;54.53;7.28;;;4.40;99.90;;;;;;5089215;28;20381;-52
2021/03/15 01:13:02;;;;;;;67.50;7.68;;;4.50;99.90;;;;;;5093822;28;20918;-52
2021/03/15 01:15:29;;;;;;;62.47;8.10;;;4.50;99.90;;;;;;5092113;28;20976;-52
2021/03/15 01:17:55;;;;;;;69.13;7.87;;;4.50;99.90;;;;;;5092458;28;20392;-54
2021/03/15 01:20:21;;;;;;;73.35;8.32;;;4.50;99.90;;;;;;5093077;28;20464;-53
2021/03/15 01:22:47;;;;;;;74.15;8.68;;;4.50;99.90;;;;;;5092489;28;20728;-54
2021/03/15 01:25:14;;;;;;;61.88;8.00;;;4.50;99.90;;;;;;5092898;28;20396;-53
2021/03/15 01:27:40;;;;;;;67.90;8.60;;;4.60;99.90;;;;;;5092680;28;20415;-52
2021/03/15 01:30:16;;;;;;;65.57;8.80;;;4.60;99.90;;;;;;5093016;28;20396;-51
2021/03/15 01:32:42;;;;;;;60.30;8.60;;;4.60;99.90;;;;;;5092747;28;20407;-52
2021/03/15 01:35:09;;;;;;;70.78;9.65;;;4.60;99.90;;;;;;5093282;28;20470;-51
2021/03/15 01:37:35;;;;;;;74.90;9.55;;;4.60;99.90;;;;;;5075158;28;20915;-50
2021/03/15 01:40:01;;;;;;;73.63;9.02;;;4.60;99.90;;;;;;5092247;28;20396;-50
2021/03/15 01:42:28;;;;;;;67.85;9.10;;;4.60;99.90;;;;;;5092956;28;20404;-54
2021/03/15 01:44:54;;;;;;;70.07;9.90;;;4.60;99.90;;;;;;5091798;28;20408;-54
2021/03/15 01:47:20;;;;;;;89.32;10.55;;;4.60;99.90;;;;;;5091255;28;20396;-52
2021/03/15 01:49:46;;;;;;;70.38;9.75;;;4.60;99.90;;;;;;5092768;28;20373;-52
2021/03/15 01:52:12;;;;;;;86.15;10.55;;;4.70;99.90;;;;;;5091635;28;20412;-53
2021/03/15 01:54:38;;;;;;;84.60;10.05;;;4.70;99.90;;;;;;5090628;28;20391;-52
2021/03/15 01:57:05;;;;;;;76.78;9.18;;;4.70;99.90;;;;;;5075443;28;20400;-52
2021/03/15 01:59:31;;;;;;;81.75;9.40;;;4.70;99.90;;;;;;5058834;28;20384;-52
2021/03/15 02:01:58;;;;;;;85.65;8.85;;;4.60;99.90;;;;;;5091548;28;20400;-51
2021/03/15 02:04:26;;;;;;;74.90;8.40;;;4.60;99.90;;;;;;5092547;28;20388;-50
2021/03/15 02:06:53;;;;;;;84.78;7.95;;;4.60;99.90;;;;;;5092702;28;20907;-52
2021/03/15 02:09:20;;;;;;;76.65;8.32;;;4.60;99.90;;;;;;5092381;28;20388;-54
2021/03/15 02:12:04;;;;;;;62.50;7.40;;;4.60;99.90;;;;;;5076736;28;20400;-51
2021/03/15 02:14:47;;;;;;;74.70;7.88;;;4.60;99.90;;;;;;5090978;28;20899;-51
2021/03/15 02:17:44;;;;;;;68.30;7.28;;;4.60;99.90;;;;;;5075753;28;20384;-54
2021/03/15 02:20:16;;;;;;;71.53;7.78;;;4.60;99.90;;;;;;5091391;28;20760;-52
2021/03/15 02:22:46;;;;;;;58.60;6.80;;;4.60;99.90;;;;;;5088248;28;20410;-52
2021/03/15 02:25:43;;;;;;;65.10;7.95;;;4.60;99.90;;;;;;5075181;28;20717;-54
2021/03/15 02:28:44;;;;;;;66.60;8.43;;;4.60;99.90;;;;;;5090449;28;20403;-52
2021/03/15 02:32:08;;;;;;;49.80;6.97;;;4.60;99.90;;;;;;5073461;28;20765;-51
2021/03/15 02:34:37;;;;;;;62.50;7.45;;;4.80;99.90;;;;;;5005460;28;20407;-52
2021/03/15 02:37:06;;;;;;;28.43;4.37;;;4.80;99.90;;;;;;5008777;28;20390;-51
2021/03/15 02:39:36;;;;;;;23.27;3.63;;;4.60;99.90;;;;;;5047246;28;20884;-50
2021/03/15 02:42:03;;;;;;;26.42;2.63;;;4.50;99.90;;;;;;5087466;28;20407;-49
2021/03/15 02:44:31;;;;;;;16.67;2.13;;;4.40;99.90;;;;;;5077300;28;20384;-53
2021/03/15 02:46:57;;;;;;;16.50;2.60;;;4.40;99.90;;;;;;5069084;28;20420;-50
2021/03/15 02:49:23;;;;;;;16.20;2.10;;;4.40;99.90;;;;;;5061115;28;20872;-51
2021/03/15 02:51:50;;;;;;;12.82;2.10;;;4.40;99.90;;;;;;5075104;28;20899;-51
2021/03/15 02:54:16;;;;;;;21.20;2.30;;;4.30;99.90;;;;;;5080971;28;20385;-52
2021/03/15 02:56:44;;;;;;;29.58;2.90;;;4.30;99.90;;;;;;5078413;28;20872;-53
2021/03/15 02:59:10;;;;;;;23.70;2.78;;;4.30;99.90;;;;;;5079183;28;20389;-55
2021/03/15 03:01:37;;;;;;;19.67;2.58;;;4.30;99.90;;;;;;5090198;28;21258;-55
2021/03/15 03:04:04;;;;;;;18.63;2.45;;;4.40;99.90;;;;;;5075477;28;20388;-55
2021/03/15 03:06:31;;;;;;;26.83;3.40;;;4.40;99.90;;;;;;5076221;28;20401;-57
2021/03/15 03:08:58;;;;;;;20.88;3.10;;;4.40;99.90;;;;;;5091583;28;20749;-56
2021/03/15 03:11:26;;;;;;;33.50;4.18;;;4.50;99.90;;;;;;5089791;28;20458;-57
2021/03/15 03:13:52;;;;;;;32.97;4.22;;;4.50;99.90;;;;;;5064799;28;20384;-53
2021/03/15 03:16:19;;;;;;;30.45;4.35;;;4.50;99.90;;;;;;5057144;28;20475;-56
2021/03/15 03:18:46;;;;;;;15.57;2.83;;;4.50;99.90;;;;;;5060943;28;20419;-55
2021/03/15 03:21:12;;;;;;;15.13;2.35;;;4.40;99.90;;;;;;5057306;28;20714;-53
2021/03/15 03:23:39;;;;;;;13.48;2.30;;;4.50;99.90;;;;;;5048713;28;20916;-52
2021/03/15 03:26:05;;;;;;;20.55;2.90;;;4.60;99.90;;;;;;5076201;28;20380;-51
2021/03/15 03:28:31;;;;;;;19.38;3.08;;;4.60;99.90;;;;;;5072963;28;20412;-53
2021/03/15 03:31:01;;;;;;;25.52;3.80;;;4.70;99.90;;;;;;5076108;28;20748;-57
2021/03/15 03:33:28;;;;;;;27.02;4.22;;;4.70;99.90;;;;;;5077471;28;20384;-57
2021/03/15 03:35:54;;;;;;;34.88;5.57;;;4.80;99.90;;;;;;5090715;28;20377;-55
2021/03/15 03:38:20;;;;;;;37.00;6.03;;;4.80;99.90;;;;;;5090278;28;20400;-55
2021/03/15 03:40:46;;;;;;;41.40;5.83;;;4.90;99.90;;;;;;5075956;28;20422;-53
2021/03/15 03:43:12;;;;;;;33.47;5.13;;;4.90;99.90;;;;;;5090560;28;20381;-56
2021/03/15 03:45:39;;;;;;;55.95;7.20;;;4.90;99.90;;;;;;5089492;28;20426;-56
2021/03/15 03:48:05;;;;;;;41.75;6.03;;;4.90;99.90;;;;;;5089553;28;20388;-56
2021/03/15 03:50:32;;;;;;;44.70;6.03;;;4.90;99.90;;;;;;5058710;28;20741;-57
2021/03/15 03:53:23;;;;;;;42.55;6.20;;;4.90;99.90;;;;;;5071902;28;20415;-56
2021/03/15 03:56:04;;;;;;;48.37;6.17;;;4.90;99.90;;;;;;5090300;28;20399;-56
2021/03/15 03:58:31;;;;;;;52.63;6.28;;;4.90;99.90;;;;;;5072188;28;20396;-56
2021/03/15 04:00:57;;;;;;;46.07;5.63;;;5.00;99.90;;;;;;5062049;28;20396;-56
2021/03/15 04:03:24;;;;;;;62.53;6.23;;;5.00;99.90;;;;;;5076724;28;20400;-56
2021/03/15 04:05:58;;;;;;;47.03;5.75;;;5.00;99.90;;;;;;5063225;28;20420;-56
2021/03/15 04:08:32;;;;;;;49.42;6.60;;;5.00;99.90;;;;;;5064175;28;20384;-56
2021/03/15 04:10:58;;;;;;;50.97;6.50;;;5.00;99.90;;;;;;5079033;28;20387;-57
2021/03/15 04:13:26;;;;;;;52.25;7.15;;;5.00;99.90;;;;;;5072581;28;20876;-54
2021/03/15 04:15:52;;;;;;;49.97;7.03;;;5.10;99.90;;;;;;5088718;28;20399;-57
2021/03/15 04:18:24;;;;;;;48.70;7.10;;;5.10;99.90;;;;;;5086420;28;20913;-54
2021/03/15 04:20:57;;;;;;;41.83;5.10;;;5.10;99.90;;;;;;5085780;28;20382;-56
2021/03/15 04:23:32;;;;;;;44.03;6.35;;;5.00;99.90;;;;;;5070804;28;20389;-56
2021/03/15 04:25:58;;;;;;;47.20;5.10;;;5.10;99.90;;;;;;5074420;28;20388;-57
2021/03/15 04:28:26;;;;;;;33.20;4.95;;;5.10;99.90;;;;;;5063892;28;20408;-52
2021/03/15 04:30:52;;;;;;;45.40;5.70;;;5.00;99.90;;;;;;5056157;28;20387;-55
2021/03/15 04:33:18;;;;;;;38.50;4.72;;;4.90;99.90;;;;;;5089181;28;20408;-56
2021/03/15 04:35:45;;;;;;;35.55;4.60;;;4.90;99.90;;;;;;5074431;28;20399;-56
2021/03/15 04:38:11;;;;;;;37.40;4.45;;;4.90;99.90;;;;;;5078712;28;20389;-57
2021/03/15 04:40:39;;;;;;;46.17;4.97;;;4.90;99.90;;;;;;5072944;28;20615;-55
2021/03/15 04:43:07;;;;;;;28.53;4.13;;;4.90;99.90;;;;;;5078721;28;20400;-56
2021/03/15 04:45:35;;;;;;;35.13;4.38;;;4.80;99.90;;;;;;5073239;28;20396;-54
2021/03/15 04:48:03;;;;;;;28.70;3.58;;;4.80;99.90;;;;;;5091387;28;20400;-57
2021/03/15 04:50:29;;;;;;;38.42;3.75;;;4.80;99.90;;;;;;5092185;28;20380;-56
2021/03/15 04:52:55;;;;;;;32.40;3.95;;;4.80;99.90;;;;;;5075781;28;20423;-55
2021/03/15 04:55:25;;;;;;;26.17;3.13;;;4.80;99.90;;;;;;5067327;28;20382;-56
2021/03/15 04:57:51;;;;;;;28.42;3.22;;;4.80;99.90;;;;;;5076158;28;20403;-57
2021/03/15 05:00:18;;;;;;;28.48;3.28;;;4.80;99.90;;;;;;5093692;28;20883;-57
2021/03/15 05:02:44;;;;;;;33.30;3.42;;;4.80;99.90;;;;;;5072910;28;20392;-54
2021/03/15 05:05:12;;;;;;;28.85;3.22;;;4.80;99.90;;;;;;5074365;28;20380;-57
2021/03/15 05:07:38;;;;;;;24.63;3.42;;;4.80;99.90;;;;;;5057608;28;20379;-54
2021/03/15 05:10:05;;;;;;;34.65;3.95;;;4.80;99.90;;;;;;5055425;28;20464;-57
2021/03/15 05:12:31;;;;;;;25.88;3.55;;;4.80;99.90;;;;;;5092444;28;20396;-56
2021/03/15 05:14:58;;;;;;;30.58;3.25;;;4.80;99.90;;;;;;5040262;28;20385;-57
2021/03/15 05:17:24;;;;;;;23.98;3.35;;;4.70;99.90;;;;;;5065519;28;20393;-54
2021/03/15 05:19:50;;;;;;;22.70;3.20;;;4.70;99.90;;;;;;5087715;28;20385;-55
2021/03/15 05:22:16;;;;;;;38.07;4.27;;;4.70;99.90;;;;;;5074109;28;20388;-55
2021/03/15 05:24:42;;;;;;;26.43;3.70;;;4.70;99.90;;;;;;5074299;28;20454;-55
2021/03/15 05:27:09;;;;;;;32.67;3.60;;;4.70;99.90;;;;;;5075136;28;20876;-55
2021/03/15 05:29:35;;;;;;;38.10;3.90;;;4.70;99.90;;;;;;5065599;28;20388;-57
2021/03/15 05:32:01;;;;;;;30.15;3.92;;;4.80;99.90;;;;;;5074459;28;20500;-54
2021/03/15 05:34:29;;;;;;;33.63;3.83;;;4.80;99.90;;;;;;5058419;28;20725;-56
2021/03/15 05:36:56;;;;;;;33.05;4.57;;;4.80;99.90;;;;;;5058527;28;20717;-57
2021/03/15 05:39:23;;;;;;;29.58;4.85;;;4.80;99.90;;;;;;5075524;28;20368;-53
2021/03/15 05:41:59;;;;;;;32.25;3.90;;;4.80;99.90;;;;;;5092432;28;20377;-57
2021/03/15 05:44:43;;;;;;;41.53;4.50;;;4.80;99.90;;;;;;5069328;28;20377;-56
2021/03/15 05:47:22;;;;;;;38.30;4.75;;;4.80;99.90;;;;;;5092059;28;20868;-56
2021/03/15 05:50:13;;;;;;;32.15;4.40;;;4.80;99.90;;;;;;5039813;28;20390;-57
2021/03/15 05:53:00;;;;;;;31.95;3.97;;;4.90;99.90;;;;;;5089239;28;20401;-56
2021/03/15 05:55:48;;;;;;;24.02;3.17;;;4.80;99.90;;;;;;5089619;28;20369;-57
2021/03/15 05:58:45;;;;;;;27.25;3.53;;;4.80;99.90;;;;;;5088119;28;20391;-55
2021/03/15 06:01:37;;;;;;;19.92;3.10;;;4.80;99.90;;;;;;5090328;28;20373;-57
2021/03/15 06:04:35;;;;;;;30.40;3.28;;;4.80;99.90;;;;;;5087885;28;20400;-56
2021/03/15 06:07:03;;;;;;;22.67;3.30;;;4.80;99.90;;;;;;5077977;28;20369;-55
2021/03/15 06:09:30;;;;;;;32.00;3.47;;;4.80;99.90;;;;;;5092457;28;20369;-55
2021/03/15 06:12:01;;;;;;;25.95;3.05;;;4.80;99.90;;;;;;5092695;28;20400;-56
2021/03/15 06:14:28;;;;;;;17.45;3.00;;;4.80;99.90;;;;;;5073896;28;20888;-54
2021/03/15 06:16:54;;;;;;;23.92;2.90;;;4.80;99.90;;;;;;5073734;28;20386;-55
2021/03/15 06:19:20;;;;;;;24.08;2.80;;;4.80;99.90;;;;;;5057072;28;20722;-54
2021/03/15 06:21:46;;;;;;;14.55;2.40;;;4.90;99.90;;;;;;5074372;28;20737;-57
2021/03/15 06:24:12;;;;;;;22.35;2.92;;;4.90;99.90;;;;;;5071678;28;21963;-56
2021/03/15 06:26:39;;;;;;;26.15;4.65;;;4.90;99.90;;;;;;5054070;28;20895;-57
2021/03/15 06:29:05;;;;;;;20.77;4.03;;;4.80;99.90;;;;;;5064870;28;20384;-57
2021/03/15 06:31:33;;;;;;;18.90;4.18;;;4.80;99.90;;;;;;5090373;28;20380;-55
2021/03/15 06:34:00;;;;;;;24.25;3.83;;;4.80;99.90;;;;;;5070248;28;20716;-56
2021/03/15 06:36:26;;;;;;;19.33;3.67;;;4.70;99.90;;;;;;5090185;28;20392;-55
2021/03/15 06:38:54;;;;;;;14.38;3.13;;;4.70;99.90;;;;;;5091734;28;20879;-57
2021/03/15 06:41:24;;;;;;;11.27;2.87;;;4.70;99.90;;;;;;5090731;28;21948;-56
2021/03/15 06:43:50;;;;;;;13.00;3.50;;;4.70;99.90;;;;;;5090090;28;20372;-56
2021/03/15 06:46:17;;;;;;;11.65;3.38;;;4.60;99.90;;;;;;5091385;28;20384;-56
2021/03/15 06:48:43;;;;;;;10.23;2.47;;;4.60;99.90;;;;;;5071882;28;20373;-54
2021/03/15 06:51:09;;;;;;;8.30;2.60;;;4.60;99.90;;;;;;5088086;28;20379;-55
2021/03/15 06:53:40;;;;;;;8.63;2.20;;;4.50;99.90;;;;;;5090124;28;20408;-51
2021/03/15 06:56:16;;;;;;;10.13;2.30;;;4.40;99.90;;;;;;5090878;28;20384;-56
2021/03/15 06:58:55;;;;;;;8.95;2.50;;;4.30;99.90;;;;;;5089341;28;20484;-56
2021/03/15 07:01:22;;;;;;;7.75;2.10;;;4.30;99.90;;;;;;5089436;28;20384;-57
2021/03/15 07:03:50;;;;;;;6.57;1.73;;;4.20;99.90;;;;;;5090838;28;20397;-53
2021/03/15 07:06:19;;;;;;;8.52;1.80;;;4.20;99.90;;;;;;5090491;28;20387;-54
2021/03/15 07:08:46;;;;;;;6.57;1.80;;;4.20;99.90;;;;;;5088013;28;20411;-54
2021/03/15 07:11:22;;;;;;;8.50;2.03;;;4.20;99.90;;;;;;5090103;28;20400;-55
2021/03/15 07:13:48;;;;;;;6.45;1.63;;;4.30;99.90;;;;;;5089973;28;20401;-56
2021/03/15 07:16:31;;;;;;;6.13;1.10;;;4.30;99.90;;;;;;5056572;28;20386;-55
2021/03/15 07:19:23;;;;;;;8.15;1.17;;;4.20;99.90;;;;;;5089113;28;20396;-54
2021/03/15 07:21:49;;;;;;;3.45;1.00;;;4.10;99.90;;;;;;5074092;28;20459;-54
2021/03/15 07:24:16;;;;;;;7.15;1.13;;;4.20;99.90;;;;;;5090958;28;20403;-54
2021/03/15 07:26:45;;;;;;;5.13;0.82;;;4.20;99.90;;;;;;5082363;28;20744;-56
2021/03/15 07:29:16;;;;;;;5.00;0.70;;;4.20;99.90;;;;;;5088020;28;20590;-55
2021/03/15 07:31:49;;;;;;;1.85;0.50;;;4.20;99.90;;;;;;5090358;28;20392;-55
2021/03/15 07:34:19;;;;;;;6.07;0.57;;;4.10;99.90;;;;;;5087191;28;20400;-55
2021/03/15 07:36:51;;;;;;;4.40;0.60;;;4.20;99.90;;;;;;5090592;28;20392;-56
2021/03/15 07:39:18;;;;;;;3.50;0.40;;;4.20;99.90;;;;;;5089308;28;20705;-59
2021/03/15 07:41:46;;;;;;;2.20;0.38;;;4.30;99.90;;;;;;5090640;28;20380;-58
2021/03/15 07:44:25;;;;;;;1.92;0.30;;;4.20;99.90;;;;;;5090349;28;20737;-54
2021/03/15 07:47:02;;;;;;;3.07;0.80;;;4.20;99.90;;;;;;5075911;28;20392;-56
2021/03/15 07:49:32;;;;;;;4.80;0.40;;;4.30;99.90;;;;;;5088285;28;20400;-56
2021/03/15 07:52:08;;;;;;;2.17;0.47;;;4.30;99.90;;;;;;5089550;28;20388;-56
2021/03/15 07:54:36;;;;;;;3.63;0.60;;;4.40;99.90;;;;;;5072864;28;20392;-57
2021/03/15 07:57:24;;;;;;;5.75;0.88;;;4.40;99.90;;;;;;5089488;28;20391;-57
2021/03/15 07:59:55;;;;;;;1.83;0.38;;;4.40;99.90;;;;;;5073058;28;20403;-56
2021/03/15 08:02:25;;;;;;;1.73;0.40;;;4.40;99.90;;;;;;5089409;28;20397;-54
2021/03/15 08:04:52;;;;;;;1.97;0.57;;;4.60;99.90;;;;;;5090038;28;20388;-56
2021/03/15 08:07:20;;;;;;;2.20;1.00;;;4.60;99.90;;;;;;5090548;28;20391;-57
2021/03/15 08:09:52;;;;;;;1.75;0.40;;;4.70;99.90;;;;;;5090067;28;20395;-57
2021/03/15 08:12:18;;;;;;;1.92;0.40;;;4.80;99.90;;;;;;5089798;28;20392;-57
2021/03/15 08:14:46;;;;;;;1.55;0.30;;;4.90;99.90;;;;;;5076761;28;20395;-57
2021/03/15 08:17:17;;;;;;;9.27;1.17;;;4.90;99.90;;;;;;5090097;28;20384;-56
2021/03/15 08:19:44;;;;;;;15.00;1.90;;;5.10;99.90;;;;;;5089977;28;20396;-56
2021/03/15 08:22:10;;;;;;;10.70;1.40;;;5.20;99.90;;;;;;5077542;28;21605;-57
2021/03/15 08:24:38;;;;;;;2.33;0.47;;;5.40;99.90;;;;;;5078705;28;20451;-57
2021/03/15 08:27:05;;;;;;;3.10;0.60;;;5.60;99.90;;;;;;5094228;28;20411;-56
2021/03/15 08:29:32;;;;;;;;;;;5.80;99.90;;;;;;5094951;28;20397;-54
2021/03/15 08:31:58;;;;;;;;;;;6.00;99.90;;;;;;5094913;28;19916;-56
2021/03/15 08:34:25;;;;;;;;;;;6.10;99.90;;;;;;5078693;28;19915;-53
2021/03/15 08:36:51;;;;;;;;;;;6.10;99.90;;;;;;5077436;28;19915;-54
2021/03/15 08:39:27;;;;;;;;;;;6.30;99.90;;;;;;5080819;28;19908;-51
2021/03/15 08:42:19;;;;;;;;;;;6.40;99.90;;;;;;5093677;28;19919;-53
2021/03/15 08:44:45;;;;;;;;;;;6.50;99.90;;;;;;5092567;28;19927;-53
2021/03/15 08:47:12;;;;;;;0.70;0.20;;;6.40;99.90;;;;;;5093779;28;20400;-51
2021/03/15 08:49:42;;;;;;;1.45;0.20;;;6.30;99.90;;;;;;5094024;28;20395;-57
2021/03/15 08:52:11;;;;;;;;;;;5.90;99.90;;;;;;5094401;28;20400;-54
2021/03/15 08:54:38;;;;;;;;;;;5.70;99.90;;;;;;5095289;28;19912;-55
2021/03/15 08:57:05;;;;;;;;;;;5.70;99.90;;;;;;5095254;28;19923;-55
2021/03/15 08:59:32;;;;;;;;;;;5.60;99.90;;;;;;5095099;28;19912;-56
2021/03/15 09:02:01;;;;;;;;;;;5.50;99.90;;;;;;5095452;28;19916;-53
2021/03/15 09:04:27;;;;;;;;;;;5.50;99.90;;;;;;5094023;28;19919;-54
2021/03/15 09:06:53;;;;;;;;;;;5.50;99.90;;;;;;5095002;28;19912;-54
2021/03/15 09:09:25;;;;;;;;;;;5.50;99.90;;;;;;5095242;28;19907;-56
2021/03/15 09:11:52;;;;;;;;;;;5.70;99.90;;;;;;5091851;28;19908;-56
2021/03/15 09:14:22;;;;;;;;;;;5.70;99.90;;;;;;5092268;28;19916;-56
2021/03/15 09:16:53;;;;;;;;;;;5.80;99.90;;;;;;5093617;28;19912;-55
2021/03/15 09:19:19;;;;;;;;;;;5.80;99.90;;;;;;5093493;28;19923;-53
2021/03/15 09:21:46;;;;;;;;;;;5.90;99.90;;;;;;5093918;28;19919;-56
2021/03/15 09:24:30;;;;;;;;;;;6.10;99.90;;;;;;5093086;28;19915;-53
2021/03/15 09:26:56;;;;;;;;;;;6.40;99.90;;;;;;5093216;28;19919;-54
2021/03/15 09:29:22;;;;;;;;;;;6.40;99.90;;;;;;5078381;28;19920;-53
2021/03/15 09:32:05;;;;;;;;;;;6.40;99.90;;;;;;5075717;28;19912;-54
2021/03/15 09:34:31;;;;;;;;;;;6.70;99.90;;;;;;5092551;28;20376;-50
2021/03/15 09:37:01;;;;;;;2.00;0.30;;;7.00;99.90;;;;;;5092569;28;20784;-51
2021/03/15 09:39:29;;;;;;;1.27;0.20;;;7.30;99.90;;;;;;5092259;28;20373;-50
2021/03/15 09:41:56;;;;;;;2.00;0.30;;;7.50;99.90;;;;;;5091131;28;20409;-51
2021/03/15 09:44:23;;;;;;;;;;;7.50;99.90;;;;;;5073751;28;20373;-52
2021/03/15 09:46:50;;;;;;;0.50;0.20;;;7.40;99.90;;;;;;5087883;28;20391;-50
2021/03/15 09:49:38;;;;;;;1.65;0.40;;;7.50;99.90;;;;;;5092063;28;20388;-49
2021/03/15 09:52:14;;;;;;;1.60;0.32;;;7.70;99.90;;;;;;5090736;28;20736;-52
2021/03/15 09:54:45;;;;;;;0.95;0.30;;;8.00;99.90;;;;;;5090892;28;20400;-52
2021/03/15 09:57:12;;;;;;;1.95;0.40;;;7.90;99.90;;;;;;5090003;28;20764;-53
2021/03/15 09:59:38;;;;;;;1.55;0.38;;;7.40;99.90;;;;;;5091547;28;20419;-51
2021/03/15 10:02:04;;;;;;;2.00;0.40;;;7.10;99.90;;;;;;5092212;28;20377;-50
2021/03/15 10:04:33;;;;;;;;;;;6.70;99.90;;;;;;5092151;28;20377;-51
2021/03/15 10:07:06;;;;;;;1.05;0.30;;;6.60;99.90;;;;;;5091918;28;20747;-55
2021/03/15 10:09:33;;;;;;;0.95;0.40;;;6.20;99.90;;;;;;5078710;28;20392;-55
2021/03/15 10:12:01;;;;;;;3.58;0.90;;;6.10;99.90;;;;;;5092503;28;20864;-55
2021/03/15 10:14:27;;;;;;;2.38;0.90;;;5.90;99.90;;;;;;5091321;28;20749;-53
2021/03/15 10:17:01;;;;;;;1.50;0.90;;;5.70;99.90;;;;;;5074554;28;20896;-52
2021/03/15 10:19:31;;;;;;;2.40;0.90;;;5.70;99.90;;;;;;5090950;28;20384;-54
2021/03/15 10:22:19;;;;;;;3.58;0.93;;;5.60;99.90;;;;;;5088807;28;20401;-55
2021/03/15 10:24:47;;;;;;;1.87;0.87;;;5.50;99.90;;;;;;5091552;28;20400;-54
2021/03/15 10:27:25;;;;;;;1.90;1.20;;;5.50;99.90;;;;;;5090769;28;20725;-53
2021/03/15 10:30:06;;;;;;;1.27;0.80;;;5.50;99.90;;;;;;5089452;28;20384;-52
2021/03/15 10:32:33;;;;;;;1.33;0.90;;;5.60;99.90;;;;;;5073137;28;20396;-54
2021/03/15 10:35:04;;;;;;;2.67;1.30;;;5.90;99.90;;;;;;5091395;28;20389;-54
2021/03/15 10:37:38;;;;;;;2.28;0.60;;;6.10;99.90;;;;;;5090759;28;20376;-53
2021/03/15 10:40:05;;;;;;;1.23;0.60;;;6.00;99.90;;;;;;5074169;28;20391;-53
2021/03/15 10:42:32;;;;;;;1.45;0.63;;;5.90;99.90;;;;;;5074763;28;20395;-57
2021/03/15 10:44:58;;;;;;;1.60;0.70;;;6.10;99.90;;;;;;5065009;28;20394;-57
2021/03/15 10:47:32;;;;;;;1.73;0.70;;;6.40;99.90;;;;;;5069600;28;20737;-57
2021/03/15 10:49:59;;;;;;;1.10;0.60;;;6.70;99.90;;;;;;5088061;28;20399;-57
2021/03/15 10:52:32;;;;;;;1.23;0.50;;;6.70;99.90;;;;;;5088128;28;20395;-57
2021/03/15 10:55:34;;;;;;;1.05;0.50;;;6.60;99.90;;;;;;5086416;28;20412;-57
2021/03/15 10:58:10;;;;;;;2.40;0.70;;;6.40;99.90;;;;;;5043064;28;20412;-57
2021/03/15 11:00:45;;;;;;;40.83;16.10;;;6.20;99.90;;;;;;5088523;28;20380;-57
2021/03/15 11:03:29;;;;;;;73.18;33.63;;;6.20;99.90;;;;;;5088507;28;20377;-57
2021/03/15 11:06:27;;;;;;;33.33;11.80;;;6.20;99.90;;;;;;5072737;28;20397;-56
2021/03/15 11:08:54;;;;;;;11.07;6.07;;;5.80;99.90;;;;;;5087477;28;20434;-57
2021/03/15 11:11:22;;;;;;;2.63;0.65;;;5.80;99.90;;;;;;5072935;28;20397;-55
2021/03/15 11:13:52;;;;;;;6.97;4.18;;;5.70;99.90;;;;;;5088162;28;20400;-57
2021/03/15 11:16:19;;;;;;;3.20;2.20;;;5.70;99.90;;;;;;5088599;28;20610;-56
2021/03/15 11:18:49;;;;;;;3.00;1.02;;;5.80;99.90;;;;;;5088194;28;20392;-56
2021/03/15 11:21:15;;;;;;;11.43;8.93;;;5.90;99.90;;;;;;5087154;28;20388;-56
2021/03/15 11:23:43;;;;;;;5.37;1.70;;;5.80;99.90;;;;;;5089700;28;20384;-56
2021/03/15 11:26:11;;;;;;;5.97;2.87;;;5.60;99.90;;;;;;5088941;28;20399;-56
2021/03/15 11:28:44;;;;;;;6.47;3.00;;;5.30;99.90;;;;;;5089463;28;20904;-55
2021/03/15 11:31:18;;;;;;;15.45;10.00;;;5.40;99.90;;;;;;5087638;28;20752;-57
2021/03/15 11:33:58;;;;;;;5.43;2.58;;;5.40;99.90;;;;;;5090238;28;20408;-56
2021/03/15 11:36:26;;;;;;;7.47;2.73;;;5.50;99.90;;;;;;5074662;28;20387;-57
2021/03/15 11:38:55;;;;;;;11.23;6.17;;;5.40;99.90;;;;;;5090882;28;20387;-55
2021/03/15 11:41:22;;;;;;;6.18;3.38;;;5.60;99.90;;;;;;5059519;28;20388;-55
2021/03/15 11:43:49;;;;;;;11.07;4.80;;;5.50;99.90;;;;;;5088059;28;20777;-56
2021/03/15 11:46:15;;;;;;;12.70;6.63;;;5.50;99.90;;;;;;5087085;28;20950;-57
2021/03/15 11:48:41;;;;;;;11.98;5.38;;;5.50;99.90;;;;;;5086773;28;20737;-56
2021/03/15 11:51:09;;;;;;;10.50;4.60;;;5.50;99.90;;;;;;5089352;28;20737;-56
2021/03/15 11:53:35;;;;;;;9.80;4.10;;;5.40;99.90;;;;;;5072198;28;20407;-56
2021/03/15 11:56:01;;;;;;;15.05;6.63;;;5.40;99.90;;;;;;5089480;28;20729;-56
2021/03/15 11:58:27;;;;;;;24.40;13.82;;;5.40;99.90;;;;;;5090248;28;20400;-54
2021/03/15 12:00:53;;;;;;;9.23;5.07;;;5.40;99.90;;;;;;5089091;28;20391;-57
2021/03/15 12:03:20;;;;;;;10.50;5.15;;;5.30;99.90;;;;;;5088946;28;20385;-56
2021/03/15 12:05:46;;;;;;;8.77;4.33;;;5.30;99.90;;;;;;5085739;28;20377;-55
2021/03/15 12:08:12;;;;;;;7.72;4.60;;;5.30;99.90;;;;;;5085039;28;20572;-62
2021/03/15 12:10:40;;;;;;;14.60;9.10;;;5.40;99.90;;;;;;5089214;28;20381;-56
2021/03/15 12:13:06;;;;;;;;;;;5.40;99.90;;;;;;5090736;28;20384;-55
2021/03/15 12:15:32;;;;;;;;;;;5.40;99.90;;;;;;5089024;28;20003;-57
2021/03/15 12:17:57;;;;;;;;;;;5.40;99.90;;;;;;5083158;28;20338;-56
2021/03/15 12:20:25;;;;;;;;;;;5.50;99.90;;;;;;5089292;28;19927;-57
2021/03/15 12:22:52;;;;;;;5.05;2.45;;;5.50;99.90;;;;;;5088808;28;20752;-61
2021/03/15 12:25:18;;;;;;;6.03;2.72;;;5.40;99.90;;;;;;5089252;28;20771;-65
2021/03/15 12:27:44;;;;;;;;;;;5.50;99.90;;;;;;5086971;28;20402;-58
2021/03/15 12:30:10;;;;;;;;;;;5.60;99.90;;;;;;5086503;28;19927;-58
2021/03/15 12:32:36;;;;;;;;;;;5.50;99.90;;;;;;5090861;28;19912;-58
2021/03/15 12:35:02;;;;;;;;;;;5.60;99.90;;;;;;5088767;28;19923;-57
2021/03/15 12:37:28;;;;;;;;;;;5.60;99.90;;;;;;5088256;28;19919;-56
2021/03/15 12:39:54;;;;;;;;;;;5.60;99.90;;;;;;5088266;28;19939;-56
2021/03/15 12:42:20;;;;;;;;;;;5.80;99.90;;;;;;5087287;28;20357;-56
2021/03/15 12:44:46;;;;;;;;;;;5.70;99.90;;;;;;5089869;28;19969;-57
2021/03/15 12:47:12;;;;;;;;;;;5.90;99.90;;;;;;5088327;28;19908;-56
2021/03/15 12:49:38;;;;;;;;;;;6.00;99.90;;;;;;5091655;28;19981;-57
2021/03/15 12:52:04;;;;;;;;;;;5.80;99.90;;;;;;5090451;28;19919;-56
2021/03/15 12:54:30;;;;;;;;;;;5.90;99.90;;;;;;5087768;28;19919;-56
2021/03/15 12:56:56;;;;;;;;;;;6.00;99.90;;;;;;5090147;28;19919;-52
2021/03/15 12:59:23;;;;;;;;;;;6.00;99.90;;;;;;5090945;28;19920;-56
2021/03/15 13:01:49;;;;;;;;;;;6.10;99.90;;;;;;5091690;28;20316;-56
2021/03/15 13:04:15;;;;;;;;;;;6.10;99.90;;;;;;5090870;28;19912;-56
2021/03/15 13:06:41;;;;;;;;;;;6.00;99.90;;;;;;5074363;28;19969;-49
2021/03/15 13:09:07;;;;;;;;;;;6.00;99.90;;;;;;5098912;28;19916;-53
2021/03/15 13:11:33;;;;;;;;;;;5.90;99.90;;;;;;5096046;28;19922;-50
2021/03/15 13:13:59;;;;;;;;;;;5.80;99.90;;;;;;5094149;28;19971;-51
2021/03/15 13:16:25;;;;;;;;;;;5.70;99.90;;;;;;5094699;28;19908;-50
2021/03/15 13:18:51;;;;;;;;;;;5.70;99.90;;;;;;5075321;28;19954;-51